KLVM/LVM METAR and TAF weather

Enter ICAO airport designator
Station Type Date Time Source
KLVM METAR 2019/05/27 08:53 UTC NOAA

KLVM 270853Z AUTO 11013KT 10SM OVC065 09/07 A2995 RMK AO2 RAE06 SLP125 P0001 60004 T00940067 58009


Station Type Date Time Source
KLVM Decoded METAR 2019/05/27 08:53 UTC NOAA

LIVINGSTON MISSION FIELD, MT, United States (KLVM) 45-42N 110-26W 1418M
May 27, 2019 - 04:53 AM EDT / 2019.05.27 0853 UTC
Wind: from the ESE (110 degrees) at 15 MPH (13 KT):0
Visibility: 10 mile(s):0
Sky conditions: overcast
Precipitation last hour: 0.01 inches
Temperature: 48.9 F (9.4 C)
Dew Point: 44.1 F (6.7 C)
Relative Humidity: 83%
Pressure (altimeter): 29.95 in. Hg (1014 hPa)
Pressure tendency: 0.03 inches (0.9 hPa) lower than three hours ago
ob: KLVM 270853Z AUTO 11013KT 10SM OVC065 09/07 A2995 RMK AO2 RAE06 SLP125 P0001 60004 T00940067 58009
cycle: 9

Station Type Date Time Source
KLVM TAF 2019/05/27 06:42 UTC NOAA

KLVM 270538Z 2706/2806 35006KT P6SM VCSH SCT040 OVC050
FM271000 09015KT 6SM -RA BR OVC025
FM271400 09019KT 6SM -RA BR OVC018
FM280300 09025KT 5SM -RA BR OVC015

Example: see airport list